Time;durP1;ratioP1;P1;durP2;ratioP2;P2;SDS_P1;SDS_P2;PMS_P1;PMS_P2;Temp;Humidity;BMP_temperature;BMP_pressure;BME280_temperature;BME280_humidity;BME280_pressure;Samples;Min_cycle;Max_cycle;Signal;HPM_P1;HPM_P2
2022/09/15 00:01:22;;;;;;;8.13;5.18;;;12.20;99.90;;;;;;5088973;28;20453;-66
2022/09/15 00:03:49;;;;;;;16.98;6.10;;;12.20;99.90;;;;;;5088454;28;20117;-66
2022/09/15 00:06:15;;;;;;;6.05;5.45;;;12.20;99.90;;;;;;5087562;28;20127;-66
2022/09/15 00:08:42;;;;;;;6.05;4.95;;;12.20;99.90;;;;;;5077048;28;20036;-66
2022/09/15 00:11:17;;;;;;;9.05;5.20;;;12.20;99.90;;;;;;5083459;28;20142;-65
2022/09/15 00:13:44;;;;;;;10.02;5.35;;;12.10;99.90;;;;;;5088487;28;20044;-66
2022/09/15 00:16:11;;;;;;;7.05;5.70;;;12.10;99.90;;;;;;5088423;28;20044;-66
2022/09/15 00:18:38;;;;;;;12.23;6.57;;;12.10;99.90;;;;;;5088449;28;20064;-66
2022/09/15 00:21:10;;;;;;;6.85;6.15;;;12.10;99.90;;;;;;5087557;28;20036;-66
2022/09/15 00:23:37;;;;;;;8.50;7.65;;;12.10;99.90;;;;;;5074256;28;20142;-66
2022/09/15 00:26:07;;;;;;;10.00;7.85;;;12.20;99.90;;;;;;5088300;28;20044;-66
2022/09/15 00:28:33;;;;;;;9.98;7.13;;;12.20;99.90;;;;;;5087288;28;20528;-65
2022/09/15 00:30:58;;;;;;;10.40;8.48;;;12.20;99.90;;;;;;5088203;28;20081;-65
2022/09/15 00:33:24;;;;;;;17.60;9.10;;;12.20;99.90;;;;;;5087866;28;20050;-65
2022/09/15 00:35:52;;;;;;;11.05;6.82;;;12.20;99.90;;;;;;5087080;28;20052;-65
2022/09/15 00:38:19;;;;;;;11.00;8.33;;;12.30;99.90;;;;;;5087579;28;20059;-65
2022/09/15 00:40:50;;;;;;;22.13;10.95;;;12.30;99.90;;;;;;5088876;28;20324;-65
2022/09/15 00:43:18;;;;;;;22.85;11.07;;;12.40;99.90;;;;;;5087895;28;20460;-65
2022/09/15 00:45:44;;;;;;;14.68;10.60;;;12.50;99.90;;;;;;5091234;28;20043;-66
2022/09/15 00:48:19;;;;;;;16.88;11.10;;;12.60;99.90;;;;;;5092277;28;20044;-65
2022/09/15 00:50:50;;;;;;;20.08;13.20;;;12.60;99.90;;;;;;5092891;28;20051;-66
2022/09/15 00:53:18;;;;;;;21.60;12.32;;;12.70;99.90;;;;;;5092772;28;20411;-66
2022/09/15 00:55:49;;;;;;;15.43;12.38;;;12.70;99.90;;;;;;5093065;28;20332;-66
2022/09/15 00:58:24;;;;;;;22.13;15.65;;;12.80;99.90;;;;;;5091781;28;20051;-65
2022/09/15 01:00:55;;;;;;;24.88;14.65;;;12.90;99.90;;;;;;5088332;28;20050;-65
2022/09/15 01:03:22;;;;;;;22.92;13.80;;;13.00;99.90;;;;;;5092384;28;20412;-65
2022/09/15 01:05:54;;;;;;;24.73;14.43;;;13.00;99.90;;;;;;5091448;28;20039;-66
2022/09/15 01:08:33;;;;;;;17.55;12.95;;;13.00;99.90;;;;;;5092266;28;20048;-65
2022/09/15 01:10:59;;;;;;;20.85;13.90;;;13.10;99.90;;;;;;5079835;28;20044;-65
2022/09/15 01:13:25;;;;;;;21.50;14.02;;;13.20;99.90;;;;;;5092295;28;20127;-65
2022/09/15 01:15:57;;;;;;;16.95;12.15;;;13.20;99.90;;;;;;5092983;28;20115;-65
2022/09/15 01:18:48;;;;;;;18.33;14.23;;;13.20;99.90;;;;;;5092579;28;20047;-65
2022/09/15 01:21:42;;;;;;;14.27;11.48;;;13.30;99.90;;;;;;5090894;28;20039;-65
2022/09/15 01:24:44;;;;;;;27.23;12.93;;;13.20;99.90;;;;;;5092007;28;20043;-65
2022/09/15 01:27:25;;;;;;;19.55;12.80;;;13.30;99.90;;;;;;5092762;28;20063;-65
2022/09/15 01:30:03;;;;;;;17.17;12.35;;;13.30;99.90;;;;;;5091861;28;20044;-65
2022/09/15 01:33:03;;;;;;;29.42;13.02;;;13.30;99.90;;;;;;5091637;28;20043;-65
2022/09/15 01:35:47;;;;;;;19.60;12.80;;;13.40;99.90;;;;;;5091247;28;20062;-65
2022/09/15 01:38:44;;;;;;;18.35;10.27;;;13.40;99.90;;;;;;5079280;28;20032;-65
2022/09/15 01:41:23;;;;;;;15.77;11.25;;;13.40;99.90;;;;;;5091751;28;20039;-65
2022/09/15 01:44:05;;;;;;;19.15;12.13;;;13.40;99.90;;;;;;5090550;28;20488;-65
2022/09/15 01:46:45;;;;;;;27.95;13.38;;;13.50;99.90;;;;;;5081103;28;20038;-65
2022/09/15 01:49:15;;;;;;;21.65;11.70;;;13.50;99.90;;;;;;5091769;28;20675;-65
2022/09/15 01:51:42;;;;;;;17.60;10.77;;;13.50;99.90;;;;;;5088298;28;20434;-65
2022/09/15 01:54:09;;;;;;;21.73;14.00;;;13.50;99.90;;;;;;5092051;28;20040;-65
2022/09/15 01:56:37;;;;;;;19.33;12.52;;;13.50;99.90;;;;;;5089691;28;20040;-65
2022/09/15 01:59:03;;;;;;;16.70;11.38;;;13.50;99.90;;;;;;5091540;28;20102;-65
2022/09/15 02:01:50;;;;;;;28.45;12.82;;;13.60;99.90;;;;;;5091444;28;20544;-65
2022/09/15 02:04:23;;;;;;;22.30;13.07;;;13.60;99.90;;;;;;5078373;28;20048;-65
2022/09/15 02:06:57;;;;;;;15.02;11.18;;;13.60;99.90;;;;;;5089885;28;20047;-64
2022/09/15 02:09:51;;;;;;;25.63;10.73;;;13.60;99.90;;;;;;5090693;28;20542;-65
2022/09/15 02:12:27;;;;;;;18.02;9.85;;;13.60;99.90;;;;;;5047470;28;20126;-65
2022/09/15 02:15:03;;;;;;;12.13;9.50;;;13.70;99.90;;;;;;5090113;28;20496;-64
2022/09/15 02:17:31;;;;;;;15.07;8.90;;;13.70;99.90;;;;;;5090683;28;20052;-65
2022/09/15 02:20:04;;;;;;;;;;;13.70;99.90;;;;;;5091461;28;20472;-65
2022/09/15 02:22:33;;;;;;;17.35;8.65;;;13.70;99.90;;;;;;5089281;28;20443;-65
2022/09/15 02:25:12;;;;;;;11.95;8.70;;;13.70;99.90;;;;;;5091472;28;20089;-65
2022/09/15 02:27:43;;;;;;;11.73;7.72;;;13.70;99.90;;;;;;5090439;28;20097;-65
2022/09/15 02:30:13;;;;;;;10.00;7.25;;;13.70;99.90;;;;;;5090164;28;20040;-65
2022/09/15 02:32:46;;;;;;;11.25;7.47;;;13.70;99.90;;;;;;5089503;28;20040;-65
2022/09/15 02:35:13;;;;;;;16.38;7.50;;;13.70;99.90;;;;;;5089323;28;20069;-65
2022/09/15 02:37:40;;;;;;;9.20;7.22;;;13.80;99.90;;;;;;5089619;28;20047;-65
2022/09/15 02:40:06;;;;;;;22.73;7.53;;;13.70;99.90;;;;;;5089739;28;20047;-65
2022/09/15 02:42:33;;;;;;;21.55;6.75;;;13.70;99.90;;;;;;5087907;28;20404;-67
2022/09/15 02:44:59;;;;;;;24.15;7.57;;;13.70;99.90;;;;;;5075365;28;20122;-66
2022/09/15 02:47:27;;;;;;;13.20;5.78;;;13.70;99.90;;;;;;5082751;28;20044;-66
2022/09/15 02:49:53;;;;;;;12.57;5.53;;;13.70;99.90;;;;;;5087812;28;20048;-66
2022/09/15 02:52:19;;;;;;;8.70;5.82;;;13.70;99.90;;;;;;5084657;28;20036;-66
2022/09/15 02:54:45;;;;;;;16.48;6.72;;;13.70;99.90;;;;;;5088333;28;20046;-66
2022/09/15 02:57:12;;;;;;;7.60;5.07;;;13.80;99.90;;;;;;5082960;28;20115;-66
2022/09/15 03:02:23;;;;;;;13.15;5.15;;;13.80;99.90;;;;;;5088208;28;20055;-66
2022/09/15 03:04:49;;;;;;;8.32;4.50;;;13.80;99.90;;;;;;5088827;28;20079;-66
2022/09/15 03:07:17;;;;;;;9.10;4.13;;;13.80;99.90;;;;;;5084294;28;20052;-66
2022/09/15 03:09:43;;;;;;;16.45;5.78;;;13.80;99.90;;;;;;5088914;28;20055;-66
2022/09/15 03:12:09;;;;;;;14.85;4.03;;;13.90;99.90;;;;;;5087620;28;20147;-66
2022/09/15 03:14:35;;;;;;;7.18;3.97;;;13.90;99.90;;;;;;5088933;28;20509;-66
2022/09/15 03:17:02;;;;;;;9.68;4.00;;;13.90;99.90;;;;;;5083724;28;20150;-66
2022/09/15 03:19:29;;;;;;;9.43;4.22;;;13.90;99.90;;;;;;5088223;28;20044;-66
2022/09/15 03:21:55;;;;;;;8.65;3.70;;;13.90;99.90;;;;;;5087936;28;20036;-66
2022/09/15 03:24:21;;;;;;;18.98;4.50;;;13.90;99.90;;;;;;5088157;28;20044;-66
2022/09/15 03:26:48;;;;;;;10.23;3.85;;;13.90;99.90;;;;;;5088572;28;20052;-66
2022/09/15 03:29:14;;;;;;;10.02;3.40;;;13.90;99.90;;;;;;5100373;28;20040;-67
2022/09/15 03:31:40;;;;;;;13.32;3.28;;;13.90;99.90;;;;;;5084940;28;20400;-66
2022/09/15 03:34:05;;;;;;;17.85;3.92;;;13.90;99.90;;;;;;5084232;28;20067;-66
2022/09/15 03:36:31;;;;;;;7.97;2.45;;;13.90;99.90;;;;;;5084688;28;20040;-66
2022/09/15 03:38:57;;;;;;;7.63;3.17;;;13.90;99.90;;;;;;5088492;28;20047;-66
2022/09/15 03:41:26;;;;;;;10.15;3.25;;;13.90;99.90;;;;;;5088318;28;20032;-67
2022/09/15 03:43:53;;;;;;;8.93;3.70;;;13.90;99.90;;;;;;5086295;28;20054;-66
2022/09/15 03:46:19;;;;;;;10.57;2.90;;;13.90;99.90;;;;;;5087356;28;20040;-66
2022/09/15 03:48:46;;;;;;;13.48;3.85;;;13.90;99.90;;;;;;5078741;28;20404;-66
2022/09/15 03:51:12;;;;;;;14.68;3.15;;;13.90;99.90;;;;;;5088153;28;20548;-66
2022/09/15 03:53:40;;;;;;;8.80;3.47;;;13.90;99.90;;;;;;5086327;28;20039;-67
2022/09/15 03:56:11;;;;;;;10.57;3.05;;;13.90;99.90;;;;;;5086997;28;20054;-67
2022/09/15 03:58:36;;;;;;;9.52;2.53;;;13.90;99.90;;;;;;5088011;28;20051;-67
2022/09/15 04:01:03;;;;;;;12.90;3.22;;;13.90;99.90;;;;;;5085025;28;20044;-67
2022/09/15 04:03:29;;;;;;;7.15;2.53;;;13.90;99.90;;;;;;5082768;28;21795;-67
2022/09/15 04:05:55;;;;;;;17.25;3.83;;;13.90;99.90;;;;;;5084394;28;20098;-67
2022/09/15 04:08:21;;;;;;;8.13;2.95;;;14.00;99.90;;;;;;5089777;28;20440;-67
2022/09/15 04:10:47;;;;;;;14.65;3.78;;;13.90;99.90;;;;;;5086493;28;20085;-66
2022/09/15 04:13:12;;;;;;;9.45;2.95;;;13.90;99.90;;;;;;5087443;28;20173;-67
2022/09/15 04:15:38;;;;;;;12.23;2.92;;;13.90;99.90;;;;;;5082901;28;20036;-67
2022/09/15 04:18:04;;;;;;;13.63;3.67;;;13.90;99.90;;;;;;5087242;28;20032;-67
2022/09/15 04:20:30;;;;;;;10.10;3.08;;;13.90;99.90;;;;;;5078418;28;20036;-66
2022/09/15 04:22:57;;;;;;;9.93;3.53;;;13.90;99.90;;;;;;5087108;28;20147;-66
2022/09/15 04:25:25;;;;;;;18.15;3.42;;;13.90;99.90;;;;;;5086636;28;20044;-66
2022/09/15 04:27:53;;;;;;;9.15;2.50;;;13.90;99.90;;;;;;5085539;28;20044;-67
2022/09/15 04:30:19;;;;;;;;;;;13.90;99.90;;;;;;5089270;28;20040;-67
2022/09/15 04:32:45;;;;;;;13.75;3.67;;;13.80;99.90;;;;;;5085911;28;19920;-67
2022/09/15 04:35:11;;;;;;;6.82;2.50;;;13.90;99.90;;;;;;5088466;28;20066;-66
2022/09/15 04:37:37;;;;;;;5.90;2.67;;;13.90;99.90;;;;;;5087653;28;20127;-67
2022/09/15 04:40:03;;;;;;;9.02;3.88;;;13.90;99.90;;;;;;5088416;28;20048;-67
2022/09/15 04:42:29;;;;;;;15.88;3.67;;;13.80;99.90;;;;;;5088105;28;20063;-67
2022/09/15 04:44:55;;;;;;;13.75;3.58;;;13.80;99.90;;;;;;5086714;28;20560;-67
2022/09/15 04:47:21;;;;;;;20.98;3.75;;;13.80;99.90;;;;;;5087571;28;20115;-67
2022/09/15 04:49:46;;;;;;;12.98;3.10;;;13.80;99.90;;;;;;5087768;28;20128;-66
2022/09/15 04:52:12;;;;;;;6.00;3.53;;;13.80;99.90;;;;;;5087284;28;20048;-67
2022/09/15 04:54:38;;;;;;;7.72;3.78;;;13.80;99.90;;;;;;5085590;28;20052;-67
2022/09/15 04:57:04;;;;;;;10.35;3.05;;;13.70;99.90;;;;;;5088016;28;20055;-67
2022/09/15 04:59:29;;;;;;;11.57;3.47;;;13.70;99.90;;;;;;5087682;28;20074;-66
2022/09/15 05:01:55;;;;;;;12.18;4.00;;;13.70;99.90;;;;;;5088184;28;20453;-68
2022/09/15 05:04:21;;;;;;;14.50;4.22;;;13.70;99.90;;;;;;5087609;28;20696;-67
2022/09/15 05:06:47;;;;;;;6.55;3.33;;;13.60;99.90;;;;;;5087437;28;20046;-67
2022/09/15 05:09:12;;;;;;;8.48;4.05;;;13.50;99.90;;;;;;5087636;28;20066;-67
2022/09/15 05:11:39;;;;;;;14.05;3.38;;;13.40;99.90;;;;;;5088692;28;20047;-67
2022/09/15 05:14:05;;;;;;;13.45;4.35;;;13.40;99.90;;;;;;5087648;28;20059;-67
2022/09/15 05:16:36;;;;;;;20.52;4.30;;;13.30;99.90;;;;;;5086890;28;20044;-67
2022/09/15 05:19:03;;;;;;;12.57;3.50;;;13.40;99.90;;;;;;5086230;28;20630;-67
2022/09/15 05:21:29;;;;;;;10.10;3.38;;;13.40;99.90;;;;;;5088130;28;20067;-67
2022/09/15 05:23:55;;;;;;;6.55;3.35;;;13.30;99.90;;;;;;5087934;28;20500;-68
2022/09/15 05:26:24;;;;;;;9.57;3.10;;;13.40;99.90;;;;;;5087528;28;20052;-68
2022/09/15 05:28:50;;;;;;;9.98;3.50;;;13.40;99.90;;;;;;5088934;28;20052;-68
2022/09/15 05:31:19;;;;;;;13.48;3.25;;;13.40;99.90;;;;;;5091152;28;20440;-67
2022/09/15 05:33:45;;;;;;;;;;;13.40;99.90;;;;;;5092509;28;20794;-65
2022/09/15 05:36:13;;;;;;;15.00;3.20;;;13.40;99.90;;;;;;5092165;28;19950;-68
2022/09/15 05:38:38;;;;;;;17.50;3.45;;;13.30;99.90;;;;;;5088635;28;20040;-68
2022/09/15 05:41:09;;;;;;;9.48;3.20;;;13.40;99.90;;;;;;5082531;28;20047;-68
2022/09/15 05:43:36;;;;;;;15.25;3.85;;;13.50;99.90;;;;;;5091915;28;20051;-68
2022/09/15 05:46:03;;;;;;;7.72;3.15;;;13.50;99.90;;;;;;5091431;28;20130;-68
2022/09/15 05:48:29;;;;;;;6.47;3.10;;;13.50;99.90;;;;;;5090405;28;20044;-68
2022/09/15 05:50:55;;;;;;;12.88;2.90;;;13.50;99.90;;;;;;5090530;28;20511;-68
2022/09/15 05:53:22;;;;;;;11.43;4.03;;;13.50;99.90;;;;;;5085172;28;20047;-68
2022/09/15 05:55:47;;;;;;;9.57;2.78;;;13.50;99.90;;;;;;5081946;28;20058;-68
2022/09/15 05:58:13;;;;;;;16.80;4.53;;;13.60;99.90;;;;;;5087682;28;20032;-68
2022/09/15 06:00:40;;;;;;;13.45;3.67;;;13.70;99.90;;;;;;5085965;28;20130;-66
2022/09/15 06:03:11;;;;;;;8.52;2.75;;;13.90;99.90;;;;;;5089872;28;20045;-67
2022/09/15 06:05:37;;;;;;;12.32;3.15;;;14.00;99.90;;;;;;5087875;28;20052;-66
2022/09/15 06:08:03;;;;;;;11.55;2.53;;;14.00;99.90;;;;;;5089736;28;20036;-66
2022/09/15 06:10:28;;;;;;;11.57;3.10;;;14.10;99.90;;;;;;5087042;28;20059;-67
2022/09/15 06:12:54;;;;;;;12.27;3.35;;;14.20;99.90;;;;;;5085421;28;20044;-67
2022/09/15 06:15:22;;;;;;;14.05;2.83;;;14.10;99.90;;;;;;5095703;28;20050;-67
2022/09/15 06:17:48;;;;;;;4.78;2.45;;;14.20;99.90;;;;;;5089913;28;20550;-67
2022/09/15 06:20:14;;;;;;;7.20;2.63;;;14.20;99.90;;;;;;5089591;28;20048;-67
2022/09/15 06:22:40;;;;;;;15.82;3.80;;;14.20;99.90;;;;;;5087678;28;20059;-66
2022/09/15 06:25:06;;;;;;;17.52;3.08;;;14.20;99.90;;;;;;5089329;28;20036;-67
2022/09/15 06:27:32;;;;;;;11.02;3.50;;;14.20;99.90;;;;;;5082197;28;20523;-67
2022/09/15 06:29:58;;;;;;;9.13;2.80;;;14.20;99.90;;;;;;5088802;28;20059;-66
2022/09/15 06:32:24;;;;;;;20.60;3.22;;;14.20;99.90;;;;;;5085886;28;20436;-67
2022/09/15 06:34:49;;;;;;;11.07;2.75;;;14.20;99.90;;;;;;5089913;28;20167;-66
2022/09/15 06:37:15;;;;;;;19.80;2.70;;;14.20;99.90;;;;;;5089939;28;20032;-66
2022/09/15 06:39:42;;;;;;;4.85;1.98;;;14.30;99.90;;;;;;5090981;28;20039;-66
2022/09/15 06:42:08;;;;;;;14.93;3.17;;;14.30;99.90;;;;;;5088994;27;20496;-66
2022/09/15 06:44:34;;;;;;;18.50;3.35;;;14.30;99.90;;;;;;5089699;28;20044;-66
2022/09/15 06:47:00;;;;;;;13.35;3.08;;;14.30;99.90;;;;;;5083594;28;20484;-66
2022/09/15 06:49:26;;;;;;;11.82;2.47;;;14.30;99.90;;;;;;5081153;28;20536;-66
2022/09/15 06:51:53;;;;;;;10.13;3.38;;;14.40;99.90;;;;;;5087555;28;20051;-67
2022/09/15 06:54:18;;;;;;;13.98;3.25;;;14.40;99.90;;;;;;5088912;28;20396;-67
2022/09/15 06:56:44;;;;;;;17.85;3.42;;;14.50;99.90;;;;;;5089415;28;20048;-66
2022/09/15 06:59:11;;;;;;;7.43;2.88;;;14.40;99.90;;;;;;5088986;28;20098;-66
2022/09/15 07:01:37;;;;;;;10.63;2.80;;;14.50;99.90;;;;;;5082727;28;20478;-66
2022/09/15 07:04:05;;;;;;;13.43;3.28;;;14.50;99.90;;;;;;5082633;28;20053;-66
2022/09/15 07:06:32;;;;;;;15.38;3.38;;;14.50;99.90;;;;;;5088162;28;20046;-66
2022/09/15 07:08:59;;;;;;;10.10;3.47;;;14.60;99.90;;;;;;5089560;28;20055;-66
2022/09/15 07:11:25;;;;;;;10.55;2.88;;;14.60;99.90;;;;;;5086360;28;20048;-66
2022/09/15 07:13:51;;;;;;;16.30;3.47;;;14.70;99.90;;;;;;5076589;28;20512;-66
2022/09/15 07:16:17;;;;;;;16.63;3.30;;;14.80;99.90;;;;;;5086798;28;20044;-66
2022/09/15 07:18:44;;;;;;;23.15;4.18;;;14.80;99.90;;;;;;5088728;28;20048;-66
2022/09/15 07:21:14;;;;;;;10.98;3.25;;;14.90;99.90;;;;;;5089611;28;20059;-66
2022/09/15 07:23:40;;;;;;;20.02;3.33;;;15.00;99.90;;;;;;5089360;28;20461;-66
2022/09/15 07:26:24;;;;;;;11.90;2.30;;;15.10;99.90;;;;;;5089101;28;20044;-66
2022/09/15 07:28:59;;;;;;;12.88;2.75;;;15.20;99.90;;;;;;5080200;28;20987;-68
2022/09/15 07:31:27;;;;;;;12.23;2.33;;;15.20;99.90;;;;;;5079490;28;20040;-66
2022/09/15 07:33:53;;;;;;;9.68;2.90;;;15.30;99.90;;;;;;5087334;28;20043;-66
2022/09/15 07:36:19;;;;;;;14.10;3.42;;;15.40;99.90;;;;;;5081792;28;20515;-66
2022/09/15 07:38:47;;;;;;;10.88;3.25;;;15.40;99.90;;;;;;5079139;28;20076;-66
2022/09/15 07:41:32;;;;;;;19.70;2.72;;;15.40;99.90;;;;;;5079798;28;20036;-66
2022/09/15 07:43:59;;;;;;;9.00;2.45;;;15.60;99.90;;;;;;5079164;28;20040;-66
2022/09/15 07:46:28;;;;;;;10.52;2.05;;;15.70;99.90;;;;;;5086780;28;20508;-66
2022/09/15 07:48:57;;;;;;;12.57;2.63;;;15.70;99.90;;;;;;5086743;28;20044;-66
2022/09/15 07:51:24;;;;;;;7.80;3.00;;;15.80;99.90;;;;;;5078698;28;20076;-67
2022/09/15 07:53:50;;;;;;;14.50;2.15;;;15.90;99.90;;;;;;5087314;28;20047;-66
2022/09/15 07:56:19;;;;;;;7.85;2.03;;;15.90;99.90;;;;;;5087249;28;20077;-66
2022/09/15 07:58:48;;;;;;;13.20;2.42;;;16.00;99.90;;;;;;5088702;28;20051;-66
2022/09/15 08:01:16;;;;;;;8.40;2.38;;;16.10;99.90;;;;;;5091702;28;20769;-66
2022/09/15 08:03:44;;;;;;;9.55;3.55;;;16.10;99.90;;;;;;5086419;28;20055;-66
2022/09/15 08:06:10;;;;;;;12.50;2.75;;;16.20;99.90;;;;;;5078548;28;20609;-69
2022/09/15 08:08:39;;;;;;;9.18;2.97;;;16.30;99.90;;;;;;5080663;28;20040;-67
2022/09/15 08:11:10;;;;;;;9.77;2.38;;;16.50;99.90;;;;;;5086467;28;20089;-66
2022/09/15 08:13:36;;;;;;;14.68;2.80;;;16.80;99.90;;;;;;5087850;28;20064;-67
2022/09/15 08:16:10;;;;;;;14.82;3.28;;;17.20;99.90;;;;;;5087923;28;20121;-67
2022/09/15 08:18:36;;;;;;;9.73;2.53;;;17.40;99.90;;;;;;5087240;28;20473;-67
2022/09/15 08:21:06;;;;;;;13.93;2.58;;;17.50;99.90;;;;;;5083435;28;20052;-67
2022/09/15 08:23:32;;;;;;;3.28;1.58;;;17.50;99.90;;;;;;5081797;28;20036;-67
2022/09/15 08:25:58;;;;;;;9.25;2.13;;;17.50;99.90;;;;;;5088178;28;20036;-67
2022/09/15 08:28:25;;;;;;;12.18;3.38;;;17.50;99.90;;;;;;5086528;28;20789;-67
2022/09/15 08:31:03;;;;;;;7.93;2.10;;;17.50;99.90;;;;;;5085751;28;20051;-67
2022/09/15 08:33:29;;;;;;;7.00;2.17;;;17.60;99.90;;;;;;5087064;28;20044;-66
2022/09/15 08:36:04;;;;;;;9.50;1.85;;;17.60;99.90;;;;;;5080012;28;20044;-67
2022/09/15 08:38:31;;;;;;;10.63;2.50;;;17.60;99.90;;;;;;5085415;28;20040;-67
2022/09/15 08:41:20;;;;;;;10.50;2.30;;;17.60;99.90;;;;;;5087341;28;20047;-67
2022/09/15 08:43:56;;;;;;;6.63;1.58;;;17.60;99.90;;;;;;5093277;28;20067;-67
2022/09/15 08:46:27;;;;;;;7.10;2.30;;;17.70;99.90;;;;;;5082320;28;20131;-67
2022/09/15 08:49:08;;;;;;;10.77;2.35;;;17.70;99.90;;;;;;5080477;28;20186;-67
2022/09/15 08:51:45;;;;;;;6.38;1.73;;;18.00;99.90;;;;;;5083204;28;20123;-67
2022/09/15 08:54:19;;;;;;;4.60;2.28;;;18.20;99.90;;;;;;5085293;28;20855;-67
2022/09/15 08:56:46;;;;;;;6.88;2.22;;;18.30;99.90;;;;;;5087378;28;20032;-65
2022/09/15 08:59:14;;;;;;;10.52;2.17;;;18.70;99.90;;;;;;5085346;28;20090;-66
2022/09/15 09:01:49;;;;;;;9.07;2.40;;;18.80;99.90;;;;;;5086689;28;20052;-66
2022/09/15 09:04:53;;;;;;;7.05;1.80;;;19.00;99.90;;;;;;5084517;28;20459;-66
2022/09/15 09:07:41;;;;;;;4.50;1.90;;;19.20;99.90;;;;;;5088536;28;20040;-66
2022/09/15 09:10:37;;;;;;;7.35;1.73;;;19.40;99.90;;;;;;5090976;28;20058;-66
2022/09/15 09:13:09;;;;;;;20.27;2.45;;;19.80;99.90;;;;;;5079644;28;20098;-66
2022/09/15 09:16:08;;;;;;;12.57;2.08;;;19.80;99.90;;;;;;5089876;28;20036;-66
2022/09/15 09:19:18;;;;;;;14.68;2.38;;;19.60;99.90;;;;;;5085419;28;20125;-66
2022/09/15 09:21:58;;;;;;;19.13;2.50;;;19.40;99.90;;;;;;5088989;28;20059;-66
2022/09/15 09:24:37;;;;;;;22.52;2.50;;;19.30;99.90;;;;;;5088821;28;20048;-66
2022/09/15 09:27:04;;;;;;;8.90;2.42;;;19.10;99.90;;;;;;5090257;28;20036;-66
2022/09/15 09:29:38;;;;;;;11.30;2.42;;;19.10;99.90;;;;;;5087834;28;20101;-67
2022/09/15 09:32:15;;;;;;;9.77;2.30;;;19.10;99.90;;;;;;5088537;28;20082;-67
2022/09/15 09:35:12;;;;;;;8.40;2.33;;;19.10;99.90;;;;;;5085248;28;20091;-66
2022/09/15 09:37:38;;;;;;;8.43;2.25;;;18.90;99.90;;;;;;5079356;28;20294;-67
2022/09/15 09:40:04;;;;;;;10.35;2.63;;;18.70;99.90;;;;;;5060480;28;20055;-66
2022/09/15 09:42:35;;;;;;;15.50;3.25;;;18.50;99.90;;;;;;5086912;28;20068;-67
2022/09/15 09:45:03;;;;;;;12.75;2.38;;;18.20;99.90;;;;;;5089443;28;20044;-67
2022/09/15 09:47:33;;;;;;;13.63;2.60;;;18.20;99.90;;;;;;5081990;28;20165;-66
2022/09/15 09:49:59;;;;;;;6.00;2.33;;;18.20;99.90;;;;;;5086215;28;20036;-66
2022/09/15 09:52:36;;;;;;;11.18;2.35;;;18.30;99.90;;;;;;5081856;28;20047;-67
2022/09/15 09:55:20;;;;;;;17.00;3.13;;;18.30;99.90;;;;;;5089441;28;20043;-66
2022/09/15 09:57:46;;;;;;;12.40;2.17;;;18.20;99.90;;;;;;5085896;28;20044;-67
2022/09/15 10:00:32;;;;;;;4.45;2.22;;;18.20;99.90;;;;;;5087012;28;20036;-66
2022/09/15 10:03:18;;;;;;;8.50;2.38;;;18.20;99.90;;;;;;5082124;28;20087;-67
2022/09/15 10:05:58;;;;;;;11.82;2.65;;;18.20;99.90;;;;;;5082139;28;20574;-67
2022/09/15 10:08:24;;;;;;;8.68;2.50;;;18.30;99.90;;;;;;5087456;28;20036;-66
2022/09/15 10:10:59;;;;;;;16.55;3.35;;;18.40;99.90;;;;;;5081381;28;20100;-66
2022/09/15 10:13:25;;;;;;;9.77;2.65;;;18.40;99.90;;;;;;5082112;28;20040;-66
2022/09/15 10:15:57;;;;;;;10.75;2.10;;;18.50;99.90;;;;;;5084614;28;20046;-66
2022/09/15 10:18:33;;;;;;;17.92;3.38;;;18.50;99.90;;;;;;5080566;28;20040;-67
2022/09/15 10:21:08;;;;;;;7.03;2.67;;;18.50;99.90;;;;;;5097325;28;20404;-67
2022/09/15 10:23:33;;;;;;;12.07;3.20;;;18.50;99.90;;;;;;5088224;28;20056;-67
2022/09/15 10:26:14;;;;;;;21.75;3.15;;;18.30;99.90;;;;;;5088485;28;20066;-67
2022/09/15 10:28:40;;;;;;;13.23;3.40;;;18.20;99.90;;;;;;5086896;28;20048;-67
2022/09/15 10:31:27;;;;;;;13.98;3.53;;;18.10;99.90;;;;;;5090320;28;20047;-67
2022/09/15 10:33:53;;;;;;;8.70;2.70;;;18.10;99.90;;;;;;5088038;28;20441;-67
2022/09/15 10:36:27;;;;;;;6.75;2.45;;;18.10;99.90;;;;;;5088838;28;20178;-67
2022/09/15 10:39:39;;;;;;;16.45;3.28;;;18.10;99.90;;;;;;5088656;28;20051;-67
2022/09/15 10:42:17;;;;;;;15.63;2.63;;;18.20;99.90;;;;;;5066534;28;20044;-66
2022/09/15 10:45:21;;;;;;;9.40;3.22;;;18.20;99.90;;;;;;5064760;28;20048;-66
2022/09/15 10:48:02;;;;;;;6.43;2.70;;;18.30;99.90;;;;;;5032590;28;20055;-68
2022/09/15 10:50:57;;;;;;;2.28;1.75;;;18.20;99.90;;;;;;5086431;28;20091;-68
2022/09/15 10:53:38;;;;;;;5.25;2.00;;;18.20;99.90;;;;;;5085720;28;20032;-68
2022/09/15 10:56:18;;;;;;;7.72;1.58;;;18.40;99.90;;;;;;5082940;28;20390;-68
2022/09/15 10:58:55;;;;;;;17.10;3.33;;;18.40;99.90;;;;;;5083708;28;20100;-69
2022/09/15 11:01:27;;;;;;;8.93;2.58;;;18.40;99.90;;;;;;5081055;28;20052;-71
2022/09/15 11:04:07;;;;;;;3.80;1.90;;;18.40;99.90;;;;;;5085662;28;20106;-68
2022/09/15 11:06:53;;;;;;;7.45;1.77;;;18.70;99.90;;;;;;5080353;28;20051;-66
2022/09/15 11:09:28;;;;;;;7.18;1.92;;;19.00;99.90;;;;;;5082306;28;20075;-66
2022/09/15 11:12:06;;;;;;;5.68;1.83;;;19.10;99.90;;;;;;5088778;28;20047;-66
2022/09/15 11:15:05;;;;;;;4.57;1.70;;;19.20;99.90;;;;;;5088013;28;20044;-66
2022/09/15 11:17:39;;;;;;;6.15;1.65;;;19.20;99.90;;;;;;5088682;28;20642;-66
2022/09/15 11:20:36;;;;;;;5.10;2.15;;;19.40;99.90;;;;;;5089201;28;20093;-66
2022/09/15 11:23:31;;;;;;;12.93;2.13;;;19.50;99.90;;;;;;5086550;28;20101;-66
2022/09/15 11:26:06;;;;;;;10.43;2.00;;;19.40;96.30;;;;;;5088856;28;20036;-66
2022/09/15 11:28:42;;;;;;;5.00;2.03;;;19.30;99.60;;;;;;5088133;28;20078;-66
2022/09/15 11:31:23;;;;;;;14.40;2.78;;;19.20;98.90;;;;;;5087349;28;20128;-66
2022/09/15 11:34:00;;;;;;;22.13;3.28;;;19.00;99.90;;;;;;5085421;28;20044;-67
2022/09/15 11:36:52;;;;;;;11.23;2.90;;;18.60;99.90;;;;;;5085372;28;20077;-67
2022/09/15 11:39:23;;;;;;;6.03;2.20;;;18.50;99.90;;;;;;5083878;28;20040;-67
2022/09/15 11:42:05;;;;;;;13.90;2.75;;;18.30;99.90;;;;;;5078377;28;20036;-68
2022/09/15 11:44:40;;;;;;;12.15;2.97;;;18.20;99.90;;;;;;5090046;28;20077;-68
2022/09/15 11:47:35;;;;;;;5.55;1.98;;;18.20;99.90;;;;;;5086795;28;20726;-68
2022/09/15 11:50:10;;;;;;;6.60;2.38;;;18.10;99.90;;;;;;5083546;28;20123;-68
2022/09/15 11:52:56;;;;;;;9.02;2.67;;;18.20;99.90;;;;;;5087998;28;20139;-68
2022/09/15 11:55:26;;;;;;;8.55;1.75;;;18.40;99.90;;;;;;5084924;28;20119;-67
2022/09/15 11:58:08;;;;;;;13.68;2.38;;;18.60;99.90;;;;;;5086882;28;20040;-67
2022/09/15 12:00:40;;;;;;;6.78;2.00;;;18.80;99.90;;;;;;5083017;28;20044;-66
2022/09/15 12:03:22;;;;;;;4.50;2.28;;;19.10;99.90;;;;;;5074799;28;20044;-67
2022/09/15 12:05:57;;;;;;;11.15;2.05;;;19.40;99.90;;;;;;5088913;28;20135;-67
2022/09/15 12:08:32;;;;;;;5.45;1.65;;;19.50;99.90;;;;;;5089182;28;20047;-67
2022/09/15 12:11:04;;;;;;;6.07;2.03;;;19.60;99.90;;;;;;5089331;28;20044;-66
2022/09/15 12:13:30;;;;;;;5.88;1.98;;;19.50;99.90;;;;;;5086531;28;20123;-66
2022/09/15 12:15:59;;;;;;;4.90;1.63;;;19.50;99.90;;;;;;5085603;28;20131;-66
2022/09/15 12:18:38;;;;;;;6.63;2.13;;;19.40;99.90;;;;;;5087866;28;20071;-66
2022/09/15 12:21:08;;;;;;;9.10;1.95;;;19.50;99.90;;;;;;5087464;28;20047;-67
2022/09/15 12:23:53;;;;;;;2.88;1.45;;;19.60;99.90;;;;;;5087552;28;20516;-67
2022/09/15 12:26:22;;;;;;;4.72;1.75;;;19.60;99.90;;;;;;5087168;28;20784;-67
2022/09/15 12:28:56;;;;;;;21.52;1.60;;;19.70;99.90;;;;;;5087242;28;20036;-67
2022/09/15 12:31:25;;;;;;;3.80;1.83;;;19.70;99.90;;;;;;5087593;28;20048;-67
2022/09/15 12:34:21;;;;;;;1.45;1.25;;;19.70;99.90;;;;;;5088185;28;20052;-66
2022/09/15 12:36:49;;;;;;;3.97;1.55;;;19.70;95.20;;;;;;5087582;28;20080;-67
2022/09/15 12:39:20;;;;;;;;;;;19.70;98.70;;;;;;5087579;28;20534;-67
2022/09/15 12:41:58;;;;;;;5.85;1.70;;;19.70;95.50;;;;;;5087872;28;19927;-67
2022/09/15 12:44:36;;;;;;;3.35;1.75;;;19.60;96.10;;;;;;5086339;28;20124;-67
2022/09/15 12:47:06;;;;;;;5.22;1.88;;;19.70;96.70;;;;;;5081028;28;20114;-67
2022/09/15 12:49:40;;;;;;;7.57;2.90;;;19.70;96.80;;;;;;5087391;28;20048;-67
2022/09/15 12:52:07;;;;;;;3.25;2.13;;;19.70;95.10;;;;;;5083122;28;20089;-67
2022/09/15 12:54:34;;;;;;;6.15;1.92;;;19.80;96.10;;;;;;5082528;28;20032;-67
2022/09/15 12:57:00;;;;;;;2.50;1.52;;;19.80;94.30;;;;;;5088278;28;20044;-68
2022/09/15 12:59:27;;;;;;;8.90;1.70;;;19.80;95.20;;;;;;5086461;28;20040;-67
2022/09/15 13:01:54;;;;;;;10.20;2.53;;;19.70;93.60;;;;;;5085729;28;20052;-66
2022/09/15 13:04:26;;;;;;;2.65;1.13;;;19.60;93.40;;;;;;5083235;28;20052;-66
2022/09/15 13:07:13;;;;;;;3.55;1.60;;;19.60;93.70;;;;;;5087341;28;20670;-66